createdAt,value
2023-05-10T00:01:40.566Z,49.40
2023-05-10T00:06:49.323Z,49.68
2023-05-10T00:11:52.611Z,49.64
2023-05-10T00:16:55.948Z,49.78
2023-05-10T00:21:59.580Z,49.89
2023-05-10T00:27:05.165Z,49.91
2023-05-10T00:32:08.790Z,49.99
2023-05-10T00:37:12.517Z,50.13
2023-05-10T00:42:15.981Z,50.26
2023-05-10T00:47:20.377Z,50.32
2023-05-10T00:52:25.385Z,50.34
2023-05-10T00:57:29.020Z,50.40
2023-05-10T01:02:32.789Z,50.61
2023-05-10T01:07:36.813Z,50.69
2023-05-10T01:12:43.470Z,50.73
2023-05-10T01:17:48.790Z,50.88
2023-05-10T01:23:16.072Z,51.02
2023-05-10T01:28:38.803Z,51.06
2023-05-10T01:34:03.110Z,51.25
2023-05-10T01:39:17.356Z,51.33
2023-05-10T01:44:23.705Z,51.61
2023-05-10T01:49:30.525Z,51.85
2023-05-10T01:54:35.136Z,52.16
2023-05-10T01:59:51.063Z,52.16
2023-05-10T02:04:56.607Z,52.00
2023-05-10T02:10:01.999Z,52.27
2023-05-10T02:15:08.356Z,52.39
2023-05-10T02:20:14.246Z,52.42
2023-05-10T02:25:21.365Z,52.42
2023-05-10T02:30:29.978Z,52.42
2023-05-10T02:35:35.312Z,52.57
2023-05-10T02:40:40.131Z,52.75
2023-05-10T02:45:45.151Z,52.86
2023-05-10T02:50:52.566Z,52.97
2023-05-10T02:56:02.157Z,52.98
2023-05-10T03:01:06.393Z,53.06
2023-05-10T03:06:10.741Z,53.19
2023-05-10T03:11:29.478Z,53.31
2023-05-10T03:16:45.041Z,53.36
2023-05-10T03:21:52.674Z,53.56
2023-05-10T03:27:00.351Z,53.55
2023-05-10T03:32:04.422Z,53.54
2023-05-10T03:37:08.862Z,53.58
2023-05-10T03:42:13.161Z,53.68
2023-05-10T03:47:16.934Z,53.89
2023-05-10T03:52:20.490Z,54.00
2023-05-10T03:57:24.693Z,54.08
2023-05-10T04:02:28.542Z,54.04
2023-05-10T04:07:32.287Z,53.97
2023-05-10T04:12:35.498Z,53.93
2023-05-10T04:17:39.038Z,54.10
2023-05-10T04:22:42.326Z,54.03
2023-05-10T04:27:45.572Z,54.05
2023-05-10T04:32:49.288Z,54.19
2023-05-10T04:37:52.856Z,54.17
2023-05-10T04:42:56.261Z,54.15
2023-05-10T04:48:00.064Z,54.16
2023-05-10T04:53:03.614Z,54.31
2023-05-10T04:58:06.925Z,54.48
2023-05-10T05:03:10.900Z,54.37
2023-05-10T05:08:14.392Z,54.31
2023-05-10T05:13:18.212Z,54.17
2023-05-10T05:18:22.129Z,54.14
2023-05-10T05:23:26.002Z,54.15
2023-05-10T05:28:34.056Z,53.96
2023-05-10T05:33:38.292Z,53.96
2023-05-10T05:38:43.245Z,54.04
2023-05-10T05:43:46.723Z,53.84
2023-05-10T05:48:50.216Z,53.89
2023-05-10T05:53:54.287Z,53.84
2023-05-10T05:58:57.989Z,53.65
2023-05-10T06:04:10.926Z,53.49
2023-05-10T06:09:14.664Z,53.59
2023-05-10T06:14:17.960Z,53.30
2023-05-10T06:25:45.953Z,53.32
2023-05-10T06:30:49.534Z,53.00
2023-05-10T06:35:53.234Z,52.89
2023-05-10T06:40:56.859Z,52.66
2023-05-10T06:46:00.310Z,52.58
2023-05-10T06:51:04.089Z,52.39
2023-05-10T06:56:07.886Z,52.69
2023-05-10T07:01:11.521Z,52.40
2023-05-10T07:06:29.418Z,52.10
2023-05-10T07:18:01.671Z,51.86
2023-05-10T07:23:05.544Z,51.82
2023-05-10T07:28:09.045Z,51.76
2023-05-10T07:33:18.794Z,51.47
2023-05-10T07:38:25.687Z,51.39
2023-05-10T07:43:29.187Z,51.09
2023-05-10T07:48:32.952Z,51.08
2023-05-10T07:53:36.612Z,50.96
2023-05-10T07:58:39.939Z,50.85
2023-05-10T08:03:43.544Z,49.76
2023-05-10T08:08:50.646Z,49.11
2023-05-10T08:13:54.296Z,48.77
2023-05-10T08:18:57.865Z,48.15
2023-05-10T08:24:02.289Z,47.09
2023-05-10T08:29:06.654Z,46.91
2023-05-10T08:34:12.739Z,48.13
2023-05-10T08:39:26.643Z,45.83
2023-05-10T08:44:33.678Z,46.63
2023-05-10T08:49:43.125Z,43.04
2023-05-10T08:54:46.615Z,42.33
2023-05-10T08:59:50.019Z,41.52
2023-05-10T09:04:53.776Z,41.95
2023-05-10T09:09:58.607Z,41.46
2023-05-10T09:15:03.731Z,41.21
2023-05-10T09:20:08.629Z,41.39
2023-05-10T09:25:17.977Z,40.71
2023-05-10T09:30:25.576Z,38.73
2023-05-10T09:35:31.536Z,40.65
2023-05-10T09:40:35.029Z,40.38
2023-05-10T09:45:39.174Z,38.20
2023-05-10T09:50:43.175Z,37.95
2023-05-10T09:55:47.967Z,38.82
2023-05-10T10:00:54.991Z,39.10
2023-05-10T10:05:58.328Z,39.22
2023-05-10T10:11:03.000Z,36.94
2023-05-10T10:16:06.886Z,36.95
2023-05-10T10:21:10.453Z,36.65
2023-05-10T10:26:14.415Z,36.49
2023-05-10T10:31:40.599Z,35.99
2023-05-10T10:36:50.450Z,35.37
2023-05-10T10:42:01.269Z,35.15
2023-05-10T10:47:28.697Z,35.20
2023-05-10T10:57:47.303Z,32.72
2023-05-10T11:02:58.991Z,33.46
2023-05-10T11:08:10.960Z,32.02
2023-05-10T11:13:15.016Z,32.00
2023-05-10T11:18:28.782Z,32.08
2023-05-10T11:23:52.994Z,32.57
2023-05-10T11:28:56.581Z,32.10
2023-05-10T11:34:02.912Z,30.96
2023-05-10T11:39:06.696Z,31.34
2023-05-10T11:44:10.687Z,30.65
2023-05-10T11:49:14.600Z,31.08
2023-05-10T11:54:17.623Z,31.15
2023-05-10T11:59:20.616Z,31.67
2023-05-10T12:04:23.916Z,31.28
2023-05-10T12:09:43.307Z,29.86
2023-05-10T12:14:51.525Z,29.64
2023-05-10T12:19:54.488Z,29.45
2023-05-10T12:24:59.940Z,29.24
2023-05-10T12:30:03.828Z,29.95
2023-05-10T12:35:07.756Z,30.59
2023-05-10T12:40:12.530Z,30.30
2023-05-10T12:45:16.069Z,30.60
2023-05-10T12:50:19.467Z,29.45
2023-05-10T12:55:22.793Z,28.92
2023-05-10T13:00:26.991Z,29.26
2023-05-10T13:05:34.096Z,27.36
2023-05-10T13:10:37.268Z,28.11
2023-05-10T13:40:21.652Z,27.81
2023-05-10T13:45:25.244Z,28.22
2023-05-10T13:50:29.115Z,28.78
2023-05-10T13:55:32.818Z,28.12
2023-05-10T14:00:36.677Z,27.52
2023-05-10T14:05:39.812Z,28.40
2023-05-10T14:10:43.592Z,28.79
2023-05-10T14:15:47.264Z,28.69
2023-05-10T14:20:50.864Z,28.40
2023-05-10T14:25:54.408Z,28.13
2023-05-10T14:30:57.909Z,28.45
2023-05-10T14:36:01.256Z,29.12
2023-05-10T14:41:04.710Z,29.17
2023-05-10T14:46:08.036Z,28.62
2023-05-10T14:51:12.715Z,29.38
2023-05-10T14:56:16.701Z,30.41
2023-05-10T15:01:20.271Z,30.39
2023-05-10T15:06:32.987Z,30.78
2023-05-10T15:11:37.589Z,30.99
2023-05-10T15:16:40.811Z,31.10
2023-05-10T15:21:45.665Z,30.89
2023-05-10T15:26:49.107Z,30.97
2023-05-10T15:31:52.764Z,31.02
2023-05-10T15:42:33.468Z,32.00
2023-05-10T15:47:37.328Z,31.28
2023-05-10T15:52:40.845Z,31.85
2023-05-10T15:57:44.777Z,31.68
2023-05-10T16:02:48.732Z,30.85
2023-05-10T16:07:52.370Z,30.68
2023-05-10T16:12:56.802Z,30.91
2023-05-10T16:18:00.954Z,31.04
2023-05-10T16:23:07.329Z,31.62
2023-05-10T16:28:12.093Z,31.61
2023-05-10T16:39:29.677Z,31.73
2023-05-10T16:44:33.647Z,32.48
2023-05-10T16:49:37.596Z,32.76
2023-05-10T16:54:41.399Z,33.04
2023-05-10T16:59:44.861Z,32.96
2023-05-10T17:04:48.964Z,32.99
2023-05-10T17:09:52.848Z,33.15
2023-05-10T17:14:56.758Z,33.20
2023-05-10T17:20:00.907Z,33.13
2023-05-10T17:25:05.212Z,33.42
2023-05-10T17:30:09.463Z,33.56
2023-05-10T17:35:12.923Z,34.23
2023-05-10T17:40:16.725Z,34.75
2023-05-10T17:45:21.188Z,34.98
2023-05-10T17:50:25.048Z,35.07
2023-05-10T17:55:32.860Z,35.42
2023-05-10T18:00:37.268Z,35.54
2023-05-10T18:05:41.864Z,35.77
2023-05-10T18:10:48.620Z,35.46
2023-05-10T18:15:52.912Z,35.43
2023-05-10T18:20:58.511Z,35.51
2023-05-10T18:26:03.604Z,35.74
2023-05-10T18:31:09.897Z,35.96
2023-05-10T18:36:15.380Z,35.96
2023-05-10T18:41:19.030Z,36.11
2023-05-10T18:46:23.032Z,36.28
2023-05-10T18:51:29.371Z,36.32
2023-05-10T18:56:34.130Z,36.32
2023-05-10T19:01:38.473Z,36.64
2023-05-10T19:06:44.811Z,36.76
2023-05-10T19:11:48.919Z,36.86
2023-05-10T19:16:54.475Z,36.93
2023-05-10T19:21:58.590Z,36.96
2023-05-10T19:27:05.172Z,37.00
2023-05-10T19:32:12.947Z,37.06
2023-05-10T19:37:16.640Z,37.36
2023-05-10T19:42:20.640Z,37.44
2023-05-10T19:47:24.631Z,37.57
2023-05-10T19:52:29.590Z,37.68
2023-05-10T19:57:33.774Z,37.87
2023-05-10T20:02:37.296Z,38.02
2023-05-10T20:07:41.005Z,38.12
2023-05-10T20:12:53.088Z,38.11
2023-05-10T20:17:57.685Z,38.21
2023-05-10T20:23:02.494Z,38.52
2023-05-10T20:28:10.654Z,38.48
2023-05-10T20:33:16.012Z,38.49
2023-05-10T20:38:19.850Z,38.72
2023-05-10T20:43:24.167Z,38.94
2023-05-10T20:48:27.718Z,39.06
2023-05-10T20:53:31.427Z,39.22
2023-05-10T20:58:36.481Z,39.56
2023-05-10T21:03:41.100Z,39.90
2023-05-10T21:08:45.561Z,39.93
2023-05-10T21:13:49.021Z,39.81
2023-05-10T21:18:52.806Z,40.00
2023-05-10T21:23:56.555Z,40.42
2023-05-10T21:29:00.191Z,40.45
2023-05-10T21:34:04.054Z,40.57
2023-05-10T21:39:08.910Z,40.59
2023-05-10T21:44:12.651Z,40.92
2023-05-10T21:49:16.650Z,41.26
2023-05-10T21:54:20.281Z,41.46
2023-05-10T21:59:24.236Z,41.53
2023-05-10T22:04:30.594Z,41.87
2023-05-10T22:09:34.440Z,42.06
2023-05-10T22:14:39.189Z,41.85
2023-05-10T22:19:43.224Z,42.46
2023-05-10T22:24:48.452Z,42.65
2023-05-10T22:29:52.601Z,42.87
2023-05-10T22:34:57.614Z,43.08
2023-05-10T22:40:01.116Z,42.77
2023-05-10T22:45:05.274Z,43.09
2023-05-10T22:50:09.344Z,43.32
2023-05-10T22:55:12.844Z,43.30
2023-05-10T23:00:17.123Z,43.51
2023-05-10T23:05:20.863Z,43.69
2023-05-10T23:10:24.978Z,43.71
2023-05-10T23:15:28.510Z,43.73
2023-05-10T23:20:42.928Z,43.74
2023-05-10T23:25:46.432Z,43.78
2023-05-10T23:30:56.160Z,43.93
2023-05-10T23:35:59.788Z,44.13
2023-05-10T23:41:06.396Z,44.15
2023-05-10T23:46:09.825Z,44.33
2023-05-10T23:51:13.534Z,44.30
2023-05-10T23:56:17.636Z,44.53
